createdAt,value
2022-09-22T00:01:40.678Z,100.00
2022-09-22T00:04:13.107Z,100.00
2022-09-22T00:06:44.702Z,100.00
2022-09-22T00:09:14.698Z,100.00
2022-09-22T00:11:46.309Z,100.00
2022-09-22T00:14:27.338Z,100.00
2022-09-22T00:17:06.778Z,100.00
2022-09-22T00:19:37.959Z,100.00
2022-09-22T00:22:12.969Z,100.00
2022-09-22T00:24:40.730Z,100.00
2022-09-22T00:27:08.596Z,100.00
2022-09-22T00:29:36.567Z,100.00
2022-09-22T00:32:07.409Z,100.00
2022-09-22T00:34:34.948Z,100.00
2022-09-22T00:37:02.515Z,100.00
2022-09-22T00:39:30.974Z,100.00
2022-09-22T00:41:58.250Z,100.00
2022-09-22T00:44:44.943Z,100.00
2022-09-22T00:47:19.013Z,100.00
2022-09-22T00:49:54.030Z,100.00
2022-09-22T00:52:31.860Z,100.00
2022-09-22T00:55:02.780Z,100.00
2022-09-22T00:57:33.761Z,100.00
2022-09-22T01:00:05.240Z,100.00
2022-09-22T01:02:33.356Z,100.00
2022-09-22T01:05:05.966Z,100.00
2022-09-22T01:07:33.896Z,100.00
2022-09-22T01:10:01.757Z,100.00
2022-09-22T01:12:32.514Z,100.00
2022-09-22T01:15:40.883Z,100.00
2022-09-22T01:18:22.090Z,100.00
2022-09-22T01:21:14.331Z,100.00
2022-09-22T01:24:34.216Z,100.00
2022-09-22T01:27:32.441Z,100.00
2022-09-22T01:30:21.365Z,100.00
2022-09-22T01:33:22.640Z,100.00
2022-09-22T01:36:09.390Z,100.00
2022-09-22T01:38:49.557Z,100.00
2022-09-22T01:41:24.248Z,100.00
2022-09-22T01:43:58.918Z,100.00
2022-09-22T01:46:37.683Z,100.00
2022-09-22T01:49:11.154Z,100.00
2022-09-22T01:51:56.554Z,100.00
2022-09-22T01:54:42.046Z,100.00
2022-09-22T01:57:27.251Z,100.00
2022-09-22T02:00:01.692Z,100.00
2022-09-22T02:02:42.975Z,100.00
2022-09-22T02:05:27.710Z,100.00
2022-09-22T02:07:56.147Z,100.00
2022-09-22T02:10:31.125Z,100.00
2022-09-22T02:12:58.747Z,100.00
2022-09-22T02:15:44.770Z,100.00
2022-09-22T02:18:25.680Z,100.00
2022-09-22T02:20:53.735Z,100.00
2022-09-22T02:23:20.961Z,100.00
2022-09-22T02:25:49.873Z,100.00
2022-09-22T02:28:20.555Z,100.00
2022-09-22T02:31:10.933Z,100.00
2022-09-22T02:33:40.685Z,100.00
2022-09-22T02:36:37.402Z,100.00
2022-09-22T02:39:13.802Z,100.00
2022-09-22T02:42:02.238Z,100.00
2022-09-22T02:45:26.084Z,100.00
2022-09-22T02:48:10.390Z,100.00
2022-09-22T02:50:38.502Z,100.00
2022-09-22T02:53:12.969Z,100.00
2022-09-22T02:55:40.778Z,100.00
2022-09-22T02:58:08.269Z,100.00
2022-09-22T03:00:37.245Z,100.00
2022-09-22T03:03:11.828Z,100.00
2022-09-22T03:05:39.486Z,100.00
2022-09-22T03:08:08.208Z,100.00
2022-09-22T03:10:35.773Z,100.00
2022-09-22T03:13:15.993Z,100.00
2022-09-22T03:15:45.828Z,100.00
2022-09-22T03:18:13.907Z,100.00
2022-09-22T03:20:41.504Z,100.00
2022-09-22T03:23:09.513Z,100.00
2022-09-22T03:25:36.789Z,100.00
2022-09-22T03:28:04.255Z,100.00
2022-09-22T03:30:31.644Z,100.00
2022-09-22T03:33:03.320Z,100.00
2022-09-22T03:35:30.897Z,100.00
2022-09-22T03:37:58.121Z,100.00
2022-09-22T03:40:27.041Z,100.00
2022-09-22T03:42:54.836Z,100.00
2022-09-22T03:45:21.989Z,100.00
2022-09-22T03:47:49.415Z,100.00
2022-09-22T03:50:16.727Z,100.00
2022-09-22T03:52:45.473Z,100.00
2022-09-22T03:55:15.982Z,100.00
2022-09-22T03:57:44.084Z,100.00
2022-09-22T04:00:12.133Z,100.00
2022-09-22T04:02:39.351Z,100.00
2022-09-22T04:05:07.107Z,100.00
2022-09-22T04:07:34.638Z,100.00
2022-09-22T04:10:02.728Z,100.00
2022-09-22T04:12:30.861Z,100.00
2022-09-22T04:14:58.641Z,100.00
2022-09-22T04:17:26.257Z,100.00
2022-09-22T04:20:01.026Z,100.00
2022-09-22T04:22:29.195Z,100.00
2022-09-22T04:24:57.630Z,100.00
2022-09-22T04:27:25.456Z,100.00
2022-09-22T04:29:52.825Z,100.00
2022-09-22T04:32:20.356Z,100.00
2022-09-22T04:34:48.960Z,100.00
2022-09-22T04:37:17.603Z,100.00
2022-09-22T04:39:45.166Z,100.00
2022-09-22T04:42:13.879Z,99.84
2022-09-22T04:44:43.828Z,97.78
2022-09-22T04:47:11.020Z,98.27
2022-09-22T04:49:38.410Z,99.29
2022-09-22T04:52:09.748Z,100.00
2022-09-22T04:54:36.775Z,100.00
2022-09-22T04:57:04.257Z,99.50
2022-09-22T04:59:31.503Z,97.73
2022-09-22T05:02:00.592Z,96.32
2022-09-22T05:04:29.347Z,96.58
2022-09-22T05:06:58.107Z,97.16
2022-09-22T05:09:26.785Z,98.22
2022-09-22T05:11:57.308Z,99.51
2022-09-22T05:14:26.518Z,99.77
2022-09-22T05:16:53.821Z,99.83
2022-09-22T05:19:21.535Z,100.00
2022-09-22T05:21:48.715Z,100.00
2022-09-22T05:24:16.116Z,100.00
2022-09-22T05:26:43.186Z,100.00
2022-09-22T05:29:11.173Z,100.00
2022-09-22T05:31:41.361Z,100.00
2022-09-22T05:34:09.474Z,100.00
2022-09-22T05:36:36.771Z,100.00
2022-09-22T05:39:03.982Z,100.00
2022-09-22T05:41:31.171Z,100.00
2022-09-22T05:43:58.637Z,100.00
2022-09-22T05:46:26.000Z,100.00
2022-09-22T05:48:53.626Z,100.00
2022-09-22T05:51:26.280Z,100.00
2022-09-22T05:53:57.892Z,99.88
2022-09-22T05:56:28.660Z,99.42
2022-09-22T05:58:56.082Z,98.24
2022-09-22T06:01:23.648Z,98.52
2022-09-22T06:03:50.836Z,98.64
2022-09-22T06:06:18.167Z,98.55
2022-09-22T06:08:48.823Z,99.05
2022-09-22T06:11:16.323Z,100.00
2022-09-22T06:13:44.455Z,98.54
2022-09-22T06:16:11.808Z,99.28
2022-09-22T06:18:39.651Z,99.51
2022-09-22T06:21:08.230Z,99.98
2022-09-22T06:23:38.261Z,99.15
2022-09-22T06:26:07.893Z,98.29
2022-09-22T06:28:35.549Z,97.48
2022-09-22T06:31:03.164Z,97.16
2022-09-22T06:33:30.775Z,96.58
2022-09-22T06:36:04.605Z,95.79
2022-09-22T06:38:32.097Z,95.29
2022-09-22T06:41:04.458Z,94.57
2022-09-22T06:43:35.686Z,94.92
2022-09-22T06:46:03.060Z,95.00
2022-09-22T06:48:32.023Z,93.99
2022-09-22T06:50:59.127Z,94.40
2022-09-22T06:53:27.611Z,94.02
2022-09-22T06:56:00.461Z,92.59
2022-09-22T06:58:29.178Z,90.99
2022-09-22T07:01:08.911Z,92.74
2022-09-22T07:03:41.213Z,92.36
2022-09-22T07:06:10.179Z,92.25
2022-09-22T07:08:39.564Z,91.21
2022-09-22T07:11:09.235Z,90.65
2022-09-22T07:13:40.124Z,91.04
2022-09-22T07:16:11.588Z,91.12
2022-09-22T07:18:41.881Z,90.97
2022-09-22T07:21:38.227Z,91.85
2022-09-22T07:24:08.286Z,91.66
2022-09-22T07:26:40.050Z,91.43
2022-09-22T07:29:32.262Z,90.76
2022-09-22T07:31:59.855Z,90.95
2022-09-22T07:34:27.095Z,90.15
2022-09-22T07:36:54.847Z,90.15
2022-09-22T07:39:25.344Z,88.82
2022-09-22T07:41:52.627Z,89.07
2022-09-22T07:44:42.309Z,87.47
2022-09-22T07:47:11.991Z,87.52
2022-09-22T07:49:39.483Z,85.62
2022-09-22T07:52:07.025Z,84.65
2022-09-22T07:54:37.141Z,84.83
2022-09-22T07:57:08.789Z,85.86
2022-09-22T07:59:36.673Z,84.90
2022-09-22T08:02:03.890Z,83.67
2022-09-22T08:04:32.022Z,82.76
2022-09-22T08:06:59.239Z,81.61
2022-09-22T08:09:28.315Z,80.44
2022-09-22T08:11:56.160Z,81.98
2022-09-22T08:14:24.341Z,83.21
2022-09-22T08:16:53.605Z,83.48
2022-09-22T08:19:23.695Z,84.03
2022-09-22T08:21:53.928Z,83.72
2022-09-22T08:24:22.651Z,84.12
2022-09-22T08:26:52.809Z,83.91
2022-09-22T08:29:21.291Z,83.95
2022-09-22T08:31:49.554Z,83.73
2022-09-22T08:34:18.343Z,83.80
2022-09-22T08:36:49.125Z,83.43
2022-09-22T08:39:17.868Z,83.17
2022-09-22T08:41:48.494Z,82.77
2022-09-22T08:44:26.680Z,82.28
2022-09-22T08:46:57.098Z,81.61
2022-09-22T08:50:01.349Z,81.36
2022-09-22T08:52:50.949Z,81.45
2022-09-22T08:55:26.772Z,79.31
2022-09-22T08:58:15.807Z,76.57
2022-09-22T09:00:54.627Z,76.26
2022-09-22T09:03:41.694Z,75.18
2022-09-22T09:06:28.933Z,75.93
2022-09-22T09:09:33.416Z,76.27
2022-09-22T09:12:07.059Z,76.34
2022-09-22T09:14:52.856Z,77.40
2022-09-22T09:17:26.142Z,77.44
2022-09-22T09:20:12.293Z,77.30
2022-09-22T09:22:49.176Z,77.40
2022-09-22T09:25:27.756Z,77.98
2022-09-22T09:28:02.103Z,77.25
2022-09-22T09:30:36.974Z,74.76
2022-09-22T09:33:11.519Z,73.40
2022-09-22T09:35:50.419Z,74.28
2022-09-22T09:38:30.275Z,72.94
2022-09-22T09:41:22.802Z,72.17
2022-09-22T09:43:54.519Z,70.41
2022-09-22T09:47:08.221Z,69.54
2022-09-22T09:49:36.060Z,67.13
2022-09-22T09:52:10.620Z,65.74
2022-09-22T09:54:40.322Z,64.79
2022-09-22T10:00:53.158Z,69.38
2022-09-22T10:03:32.715Z,69.58
2022-09-22T10:06:04.834Z,67.18
2022-09-22T10:08:37.360Z,67.35
2022-09-22T10:11:08.009Z,67.39
2022-09-22T10:13:40.308Z,66.50
2022-09-22T10:16:23.344Z,66.09
2022-09-22T10:18:59.392Z,66.23
2022-09-22T10:21:28.849Z,66.71
2022-09-22T10:24:06.693Z,68.00
2022-09-22T10:26:34.689Z,67.25
2022-09-22T10:29:39.247Z,67.04
2022-09-22T10:32:16.951Z,66.57
2022-09-22T10:37:15.612Z,67.46
2022-09-22T10:39:54.554Z,67.00
2022-09-22T10:42:33.514Z,66.70
2022-09-22T10:45:12.474Z,64.99
2022-09-22T10:47:58.265Z,65.96
2022-09-22T10:50:37.809Z,65.94
2022-09-22T10:53:48.248Z,65.15
2022-09-22T10:56:37.661Z,65.50
2022-09-22T10:59:28.786Z,65.35
2022-09-22T11:02:18.444Z,66.16
2022-09-22T11:05:54.784Z,64.41
2022-09-22T11:08:41.263Z,65.60
2022-09-22T11:11:30.137Z,64.22
2022-09-22T11:14:20.758Z,64.58
2022-09-22T11:17:26.343Z,65.12
2022-09-22T11:20:23.191Z,64.56
2022-09-22T11:22:57.599Z,64.51
2022-09-22T11:25:55.546Z,64.46
2022-09-22T11:28:38.215Z,64.53
2022-09-22T11:31:41.593Z,64.64
2022-09-22T11:34:38.195Z,65.99
2022-09-22T11:37:25.752Z,66.36
2022-09-22T11:39:52.878Z,66.04
2022-09-22T11:42:47.058Z,65.13
2022-09-22T11:45:43.070Z,64.33
2022-09-22T11:48:28.376Z,62.57
2022-09-22T11:51:04.760Z,62.51
2022-09-22T11:53:51.103Z,61.96
2022-09-22T11:56:31.973Z,60.71
2022-09-22T11:59:04.380Z,61.53
2022-09-22T12:01:38.331Z,60.01
2022-09-22T12:04:14.487Z,58.83
2022-09-22T12:06:50.431Z,59.24
2022-09-22T12:09:39.825Z,58.15
2022-09-22T12:12:14.300Z,58.33
2022-09-22T12:14:42.524Z,57.26
2022-09-22T12:17:23.630Z,58.31
2022-09-22T12:20:27.149Z,57.61
2022-09-22T12:23:17.815Z,58.41
2022-09-22T12:25:54.528Z,54.87
2022-09-22T12:28:28.476Z,55.14
2022-09-22T12:31:17.482Z,55.14
2022-09-22T12:33:56.095Z,55.39
2022-09-22T12:36:36.335Z,62.09
2022-09-22T12:39:17.480Z,63.49
2022-09-22T12:41:50.659Z,66.54
2022-09-22T12:44:36.717Z,67.46
2022-09-22T12:47:14.587Z,69.86
2022-09-22T12:49:55.957Z,71.58
2022-09-22T12:52:42.102Z,69.70
2022-09-22T12:55:38.232Z,71.10
2022-09-22T12:58:28.826Z,71.21
2022-09-22T13:01:17.073Z,68.93
2022-09-22T13:04:12.271Z,70.49
2022-09-22T13:06:39.450Z,70.71
2022-09-22T13:09:06.657Z,69.51
2022-09-22T13:12:21.830Z,67.54
2022-09-22T13:15:16.280Z,62.81
2022-09-22T13:17:47.778Z,59.95
2022-09-22T13:20:18.114Z,59.53
2022-09-22T13:22:45.657Z,56.65
2022-09-22T13:25:21.169Z,57.85
2022-09-22T13:27:51.274Z,58.79
2022-09-22T13:30:18.584Z,60.10
2022-09-22T13:32:51.393Z,61.60
2022-09-22T13:35:27.701Z,62.71
2022-09-22T13:37:57.480Z,60.14
2022-09-22T13:40:31.916Z,61.72
2022-09-22T13:43:03.261Z,62.90
2022-09-22T13:45:30.528Z,65.22
2022-09-22T13:48:08.528Z,60.95
2022-09-22T13:51:12.122Z,61.24
2022-09-22T13:53:46.965Z,60.20
2022-09-22T13:56:29.417Z,60.67
2022-09-22T13:59:00.256Z,60.98
2022-09-22T14:01:29.445Z,60.05
2022-09-22T14:03:57.118Z,60.44
2022-09-22T14:06:31.806Z,61.90
2022-09-22T14:09:00.460Z,63.02
2022-09-22T14:11:31.382Z,63.63
2022-09-22T14:14:01.075Z,63.90
2022-09-22T14:16:29.106Z,61.95
2022-09-22T14:19:08.982Z,59.92
2022-09-22T14:21:50.227Z,58.38
2022-09-22T14:24:18.838Z,57.96
2022-09-22T14:26:51.915Z,56.95
2022-09-22T14:29:24.599Z,58.37
2022-09-22T14:32:00.497Z,56.69
2022-09-22T14:34:31.575Z,55.94
2022-09-22T14:37:02.064Z,55.46
2022-09-22T14:39:34.296Z,55.73
2022-09-22T14:42:12.099Z,55.58
2022-09-22T14:44:48.387Z,54.71
2022-09-22T14:47:24.457Z,56.80
2022-09-22T14:50:20.578Z,55.84
2022-09-22T14:53:09.537Z,56.01
2022-09-22T14:55:40.104Z,57.05
2022-09-22T14:58:16.102Z,55.73
2022-09-22T15:01:20.014Z,55.31
2022-09-22T15:04:03.384Z,53.44
2022-09-22T15:06:40.040Z,51.96
2022-09-22T15:09:23.248Z,50.75
2022-09-22T15:12:02.575Z,51.21
2022-09-22T15:14:43.257Z,50.45
2022-09-22T15:17:54.427Z,49.83
2022-09-22T15:20:31.435Z,50.21
2022-09-22T15:22:58.793Z,50.37
2022-09-22T15:25:26.206Z,50.27
2022-09-22T15:27:53.713Z,50.34
2022-09-22T15:30:22.133Z,50.69
2022-09-22T15:32:49.710Z,50.92
2022-09-22T15:35:18.042Z,50.98
2022-09-22T15:38:27.645Z,51.18
2022-09-22T15:40:55.451Z,51.78
2022-09-22T15:43:25.236Z,51.42
2022-09-22T15:45:56.266Z,52.24
2022-09-22T15:48:28.805Z,52.43
2022-09-22T15:50:58.582Z,52.73
2022-09-22T15:53:26.525Z,53.01
2022-09-22T15:55:55.274Z,53.52
2022-09-22T15:58:23.989Z,54.25
2022-09-22T16:00:53.347Z,55.05
2022-09-22T16:03:23.974Z,55.92
2022-09-22T16:05:57.572Z,56.96
2022-09-22T16:08:52.307Z,58.06
2022-09-22T16:11:31.096Z,59.59
2022-09-22T16:14:03.904Z,60.46
2022-09-22T16:16:33.630Z,60.87
2022-09-22T16:19:02.346Z,61.48
2022-09-22T16:21:34.755Z,63.06
2022-09-22T16:24:08.769Z,62.99
2022-09-22T16:26:37.899Z,64.40
2022-09-22T16:29:05.609Z,65.91
2022-09-22T16:31:33.666Z,67.18
2022-09-22T16:34:03.398Z,67.47
2022-09-22T16:36:33.427Z,67.96
2022-09-22T16:39:03.536Z,68.52
2022-09-22T16:41:35.576Z,67.98
2022-09-22T16:44:09.084Z,67.72
2022-09-22T16:46:38.430Z,67.79
2022-09-22T16:49:08.288Z,67.12
2022-09-22T16:51:44.024Z,67.54
2022-09-22T16:54:13.844Z,67.72
2022-09-22T16:56:43.564Z,68.38
2022-09-22T16:59:13.306Z,68.61
2022-09-22T17:01:40.511Z,68.88
2022-09-22T17:04:08.778Z,69.79
2022-09-22T17:06:38.395Z,70.08
2022-09-22T17:09:06.830Z,70.39
2022-09-22T17:11:37.076Z,70.99
2022-09-22T17:14:12.145Z,71.85
2022-09-22T17:16:49.873Z,72.09
2022-09-22T17:19:22.230Z,72.59
2022-09-22T17:21:54.210Z,73.96
2022-09-22T17:24:22.676Z,74.59
2022-09-22T17:26:52.511Z,74.08
2022-09-22T17:29:25.543Z,74.27
2022-09-22T17:31:58.354Z,74.61
2022-09-22T17:34:28.569Z,74.94
2022-09-22T17:36:57.307Z,75.46
2022-09-22T17:39:26.278Z,76.26
2022-09-22T17:41:55.317Z,75.84
2022-09-22T17:44:28.268Z,76.33
2022-09-22T17:47:13.845Z,76.04
2022-09-22T17:49:59.610Z,76.80
2022-09-22T17:52:33.237Z,76.61
2022-09-22T17:55:07.352Z,78.42
2022-09-22T17:57:39.994Z,79.28
2022-09-22T18:00:11.231Z,79.69
2022-09-22T18:02:39.132Z,79.93
2022-09-22T18:05:15.298Z,80.27
2022-09-22T18:07:43.228Z,80.80
2022-09-22T18:10:14.543Z,81.01
2022-09-22T18:12:43.666Z,81.25
2022-09-22T18:15:13.395Z,82.05
2022-09-22T18:17:45.841Z,81.70
2022-09-22T18:20:22.027Z,81.83
2022-09-22T18:22:50.169Z,82.02
2022-09-22T18:25:39.388Z,82.25
2022-09-22T18:28:06.864Z,82.40
2022-09-22T18:30:34.565Z,82.81
2022-09-22T18:33:04.408Z,83.23
2022-09-22T18:35:32.998Z,84.14
2022-09-22T18:38:02.171Z,84.69
2022-09-22T18:40:35.462Z,84.62
2022-09-22T18:43:02.656Z,83.76
2022-09-22T18:45:37.264Z,82.65
2022-09-22T18:48:07.170Z,81.55
2022-09-22T18:50:35.790Z,82.00
2022-09-22T18:53:06.553Z,82.48
2022-09-22T18:55:34.937Z,83.27
2022-09-22T18:58:03.333Z,84.08
2022-09-22T19:00:31.678Z,83.40
2022-09-22T19:03:00.483Z,83.85
2022-09-22T19:05:28.470Z,84.26
2022-09-22T19:08:01.341Z,84.73
2022-09-22T19:10:30.951Z,85.54
2022-09-22T19:12:59.471Z,85.73
2022-09-22T19:15:27.317Z,86.80
2022-09-22T19:17:56.103Z,86.68
2022-09-22T19:20:24.341Z,87.45
2022-09-22T19:22:52.827Z,86.46
2022-09-22T19:25:22.016Z,87.54
2022-09-22T19:27:50.783Z,88.54
2022-09-22T19:30:22.386Z,88.81
2022-09-22T19:32:51.490Z,89.04
2022-09-22T19:35:19.679Z,89.25
2022-09-22T19:37:47.145Z,89.43
2022-09-22T19:40:18.780Z,89.65
2022-09-22T19:42:49.916Z,89.32
2022-09-22T19:45:18.713Z,89.88
2022-09-22T19:47:47.338Z,90.64
2022-09-22T19:50:15.020Z,91.30
2022-09-22T19:52:42.775Z,91.67
2022-09-22T19:55:11.806Z,92.36
2022-09-22T19:57:41.846Z,92.10
2022-09-22T20:00:26.447Z,92.23
2022-09-22T20:02:58.986Z,92.60
2022-09-22T20:05:37.826Z,93.35
2022-09-22T20:08:07.647Z,91.90
2022-09-22T20:10:35.160Z,90.26
2022-09-22T20:13:22.683Z,89.63
2022-09-22T20:15:49.968Z,89.20
2022-09-22T20:18:17.906Z,89.27
2022-09-22T20:20:45.213Z,89.44
2022-09-22T20:23:15.875Z,90.64
2022-09-22T20:25:43.306Z,91.64
2022-09-22T20:28:11.400Z,91.75
2022-09-22T20:30:38.993Z,92.17
2022-09-22T20:33:06.642Z,92.40
2022-09-22T20:35:34.125Z,92.27
2022-09-22T20:38:01.961Z,92.59
2022-09-22T20:40:53.666Z,92.34
2022-09-22T20:43:30.181Z,92.28
2022-09-22T20:49:37.946Z,92.62
2022-09-22T20:52:16.410Z,92.71
2022-09-22T20:54:44.954Z,92.49
2022-09-22T20:57:14.211Z,91.88
2022-09-22T20:59:42.590Z,91.74
2022-09-22T21:02:10.291Z,92.12
2022-09-22T21:04:37.486Z,91.85
2022-09-22T21:07:04.662Z,92.15
2022-09-22T21:09:50.140Z,92.45
2022-09-22T21:12:17.303Z,92.92
2022-09-22T21:14:45.954Z,93.32
2022-09-22T21:17:13.799Z,93.69
2022-09-22T21:19:41.199Z,94.28
2022-09-22T21:22:08.334Z,94.48
2022-09-22T21:24:35.542Z,94.96
2022-09-22T21:27:02.691Z,94.24
2022-09-22T21:29:29.868Z,93.94
2022-09-22T21:31:57.940Z,93.61
2022-09-22T21:34:25.411Z,94.38
2022-09-22T21:36:52.584Z,93.98
2022-09-22T21:39:19.722Z,94.27
2022-09-22T21:41:47.203Z,94.69
2022-09-22T21:44:14.237Z,95.20
2022-09-22T21:46:41.927Z,95.79
2022-09-22T21:49:10.778Z,96.38
2022-09-22T21:51:44.099Z,96.72
2022-09-22T21:54:14.693Z,96.18
2022-09-22T21:56:42.208Z,95.89
2022-09-22T21:59:11.708Z,96.27
2022-09-22T22:01:41.012Z,96.04
2022-09-22T22:04:09.004Z,96.74
2022-09-22T22:06:42.173Z,97.37
2022-09-22T22:09:15.634Z,96.97
2022-09-22T22:11:48.910Z,96.91
2022-09-22T22:14:19.292Z,97.39
2022-09-22T22:16:48.612Z,97.27
2022-09-22T22:19:20.111Z,96.91
2022-09-22T22:21:50.455Z,97.19
2022-09-22T22:24:25.895Z,97.79
2022-09-22T22:27:01.675Z,97.96
2022-09-22T22:29:34.853Z,97.29
2022-09-22T22:32:03.253Z,97.45
2022-09-22T22:34:30.438Z,97.97
2022-09-22T22:37:01.246Z,97.99
2022-09-22T22:39:29.938Z,97.65
2022-09-22T22:41:57.085Z,97.32
2022-09-22T22:44:24.266Z,97.75
2022-09-22T22:46:51.450Z,97.61
2022-09-22T22:49:18.727Z,98.28
2022-09-22T22:51:46.014Z,98.40
2022-09-22T22:54:14.611Z,98.79
2022-09-22T22:56:43.259Z,99.39
2022-09-22T22:59:12.150Z,98.74
2022-09-22T23:01:40.571Z,98.76
2022-09-22T23:04:10.131Z,98.54
2022-09-22T23:06:40.310Z,98.21
2022-09-22T23:09:10.195Z,97.95
2022-09-22T23:11:40.073Z,97.71
2022-09-22T23:14:11.565Z,97.10
2022-09-22T23:16:43.345Z,97.53
2022-09-22T23:19:13.414Z,97.73
2022-09-22T23:21:40.714Z,98.09
2022-09-22T23:24:08.347Z,98.02
2022-09-22T23:26:37.445Z,97.66
2022-09-22T23:29:06.287Z,98.24
2022-09-22T23:31:33.729Z,97.71
2022-09-22T23:34:01.305Z,97.97
2022-09-22T23:36:29.902Z,96.45
2022-09-22T23:39:05.036Z,96.45
2022-09-22T23:41:34.431Z,97.31
2022-09-22T23:44:03.017Z,98.69
2022-09-22T23:46:30.645Z,98.63
2022-09-22T23:49:00.361Z,99.46
2022-09-22T23:51:28.342Z,99.83
2022-09-22T23:53:56.534Z,100.00
2022-09-22T23:56:24.933Z,100.00
2022-09-22T23:58:52.743Z,100.00
